createdAt,value
2017-12-03T00:00:05.066Z,3.00
2017-12-03T00:02:33.309Z,2.90
2017-12-03T00:05:01.622Z,2.90
2017-12-03T00:07:29.934Z,3.00
2017-12-03T00:09:58.291Z,3.10
2017-12-03T00:12:27.353Z,3.00
2017-12-03T00:14:55.585Z,2.90
2017-12-03T00:17:23.948Z,2.90
2017-12-03T00:19:52.268Z,2.70
2017-12-03T00:22:21.371Z,2.80
2017-12-03T00:24:49.624Z,2.80
2017-12-03T00:27:17.980Z,2.80
2017-12-03T00:29:47.100Z,2.70
2017-12-03T00:32:15.532Z,2.70
2017-12-03T00:34:44.603Z,2.80
2017-12-03T00:37:12.996Z,2.80
2017-12-03T00:39:41.290Z,2.70
2017-12-03T00:42:10.390Z,2.70
2017-12-03T00:44:39.454Z,2.60
2017-12-03T00:47:07.700Z,2.60
2017-12-03T00:49:36.085Z,2.50
2017-12-03T00:52:04.320Z,2.70
2017-12-03T00:54:32.564Z,2.70
2017-12-03T00:57:00.902Z,2.50
2017-12-03T00:59:29.216Z,2.40
2017-12-03T01:01:57.514Z,2.60
2017-12-03T01:04:25.809Z,2.50
2017-12-03T01:06:54.132Z,2.60
2017-12-03T01:09:22.428Z,2.80
2017-12-03T01:11:51.489Z,2.80
2017-12-03T01:14:19.784Z,2.70
2017-12-03T01:16:48.077Z,2.50
2017-12-03T01:19:16.435Z,2.40
2017-12-03T01:21:44.688Z,2.50
2017-12-03T01:24:12.934Z,2.50
2017-12-03T01:26:41.256Z,2.60
2017-12-03T01:29:09.561Z,2.60
2017-12-03T01:31:38.594Z,2.50
2017-12-03T01:34:06.915Z,2.50
2017-12-03T01:36:35.197Z,2.60
2017-12-03T01:39:03.477Z,2.60
2017-12-03T01:41:31.978Z,2.60
2017-12-03T01:44:01.042Z,2.80
2017-12-03T01:46:29.324Z,2.80
2017-12-03T01:48:57.634Z,2.60
2017-12-03T01:51:25.881Z,2.70
2017-12-03T01:53:54.136Z,2.70
2017-12-03T01:56:22.425Z,2.80
2017-12-03T01:58:50.691Z,2.80
2017-12-03T02:01:18.929Z,2.70
2017-12-03T02:03:47.208Z,2.70
2017-12-03T02:06:15.448Z,2.70
2017-12-03T02:08:43.712Z,2.60
2017-12-03T02:11:12.002Z,2.70
2017-12-03T02:13:41.056Z,2.80
2017-12-03T02:16:09.313Z,2.80
2017-12-03T02:18:37.611Z,2.70
2017-12-03T02:21:05.872Z,2.70
2017-12-03T02:23:34.176Z,2.60
2017-12-03T02:26:02.455Z,2.60
2017-12-03T02:28:30.716Z,2.70
2017-12-03T02:30:58.983Z,2.80
2017-12-03T02:33:27.331Z,3.30
2017-12-03T02:35:56.360Z,3.70
2017-12-03T02:38:24.725Z,3.70
2017-12-03T02:40:54.072Z,3.30
2017-12-03T02:43:22.498Z,2.90
2017-12-03T02:45:50.789Z,2.80
2017-12-03T02:48:19.094Z,2.90
2017-12-03T02:50:47.383Z,2.70
2017-12-03T02:53:15.671Z,2.60
2017-12-03T02:55:44.002Z,2.60
2017-12-03T02:58:12.251Z,2.60
2017-12-03T03:00:40.534Z,2.70
2017-12-03T03:03:08.837Z,2.50
2017-12-03T03:05:37.131Z,2.50
2017-12-03T03:08:05.404Z,2.50
2017-12-03T03:10:34.528Z,2.80
2017-12-03T03:13:02.792Z,2.80
2017-12-03T03:15:31.047Z,2.90
2017-12-03T03:18:00.154Z,2.70
2017-12-03T03:20:28.431Z,2.70
2017-12-03T03:22:56.677Z,2.70
2017-12-03T03:25:24.988Z,2.80
2017-12-03T03:27:53.315Z,2.80
2017-12-03T03:30:21.656Z,2.70
2017-12-03T03:32:50.068Z,2.90
2017-12-03T03:35:18.328Z,2.90
2017-12-03T03:37:46.616Z,2.80
2017-12-03T03:40:14.908Z,2.70
2017-12-03T03:42:43.231Z,3.00
2017-12-03T03:45:11.576Z,3.00
2017-12-03T03:47:39.855Z,2.90
2017-12-03T03:50:08.132Z,2.70
2017-12-03T03:52:36.382Z,2.60
2017-12-03T03:55:04.659Z,2.60
2017-12-03T03:57:32.962Z,2.50
2017-12-03T04:00:01.203Z,2.40
2017-12-03T04:02:29.519Z,2.50
2017-12-03T04:04:58.586Z,2.40
2017-12-03T04:07:26.833Z,2.40
2017-12-03T04:09:55.142Z,2.30
2017-12-03T04:12:23.412Z,2.70
2017-12-03T04:14:51.642Z,2.50
2017-12-03T04:17:19.913Z,2.40
2017-12-03T04:19:48.169Z,2.40
2017-12-03T04:22:16.457Z,2.40
2017-12-03T04:24:45.537Z,2.60
2017-12-03T04:27:14.549Z,2.70
2017-12-03T04:29:43.289Z,2.70
2017-12-03T04:32:11.567Z,2.70
2017-12-03T04:34:39.843Z,2.50
2017-12-03T04:37:08.127Z,2.50
2017-12-03T04:39:36.435Z,3.10
2017-12-03T04:42:04.721Z,3.70
2017-12-03T04:44:33.021Z,3.80
2017-12-03T04:47:01.863Z,4.00
2017-12-03T04:49:30.894Z,3.70
2017-12-03T04:51:59.170Z,3.70
2017-12-03T04:54:27.463Z,3.60
2017-12-03T04:56:55.749Z,4.00
2017-12-03T04:59:24.030Z,4.00
2017-12-03T05:01:52.302Z,3.60
2017-12-03T05:04:20.548Z,3.10
2017-12-03T05:06:49.551Z,3.10
2017-12-03T05:09:17.841Z,3.10
2017-12-03T05:11:46.195Z,3.40
2017-12-03T05:14:14.560Z,3.10
2017-12-03T05:16:42.878Z,3.00
2017-12-03T05:19:11.162Z,2.90
2017-12-03T05:21:39.431Z,3.10
2017-12-03T05:24:07.760Z,3.20
2017-12-03T05:26:36.093Z,3.20
2017-12-03T05:29:04.346Z,2.90
2017-12-03T05:31:32.660Z,3.00
2017-12-03T05:34:00.908Z,2.90
2017-12-03T05:36:29.154Z,2.80
2017-12-03T05:38:57.467Z,2.70
2017-12-03T05:41:25.720Z,2.70
2017-12-03T05:43:53.974Z,2.70
2017-12-03T05:46:22.286Z,3.00
2017-12-03T05:48:50.543Z,2.80
2017-12-03T05:51:18.818Z,2.60
2017-12-03T05:53:47.112Z,2.70
2017-12-03T05:56:16.124Z,2.60
2017-12-03T05:58:44.367Z,2.90
2017-12-03T06:01:12.689Z,3.70
2017-12-03T06:03:40.990Z,4.10
2017-12-03T06:06:09.420Z,4.30
2017-12-03T06:08:37.696Z,4.10
2017-12-03T06:11:05.934Z,3.90
2017-12-03T06:13:34.225Z,4.20
2017-12-03T06:16:03.283Z,4.70
2017-12-03T06:18:31.563Z,4.60
2017-12-03T06:20:59.821Z,4.70
2017-12-03T06:23:28.351Z,4.80
2017-12-03T06:25:56.613Z,4.90
2017-12-03T06:28:24.891Z,4.90
2017-12-03T06:30:53.988Z,4.50
2017-12-03T06:33:22.231Z,4.50
2017-12-03T06:35:51.256Z,4.10
2017-12-03T06:38:19.551Z,4.10
2017-12-03T06:40:47.816Z,4.00
2017-12-03T06:43:16.063Z,3.70
2017-12-03T06:45:44.401Z,3.50
2017-12-03T06:48:12.690Z,3.50
2017-12-03T06:50:40.928Z,3.40
2017-12-03T06:53:09.205Z,3.30
2017-12-03T06:55:37.457Z,3.10
2017-12-03T06:58:05.745Z,3.00
2017-12-03T07:00:34.068Z,3.00
2017-12-03T07:03:02.338Z,3.00
2017-12-03T07:05:31.612Z,2.80
2017-12-03T07:07:59.918Z,2.80
2017-12-03T07:10:28.228Z,2.90
2017-12-03T07:12:56.493Z,3.10
2017-12-03T07:15:24.798Z,3.20
2017-12-03T07:17:53.123Z,3.10
2017-12-03T07:20:21.492Z,2.90
2017-12-03T07:22:49.835Z,2.90
2017-12-03T07:25:18.099Z,2.90
2017-12-03T07:27:46.388Z,2.90
2017-12-03T07:30:14.685Z,3.00
2017-12-03T07:32:42.936Z,2.70
2017-12-03T07:35:11.219Z,2.60
2017-12-03T07:37:39.531Z,3.10
2017-12-03T07:40:08.588Z,2.90
2017-12-03T07:42:36.905Z,2.90
2017-12-03T07:45:05.973Z,2.80
2017-12-03T07:47:34.261Z,2.80
2017-12-03T07:50:02.521Z,2.80
2017-12-03T07:52:30.791Z,2.70
2017-12-03T07:54:59.048Z,2.70
2017-12-03T07:57:27.281Z,2.90
2017-12-03T07:59:55.587Z,3.30
2017-12-03T08:02:23.865Z,3.60
2017-12-03T08:04:52.162Z,3.70
2017-12-03T08:07:20.447Z,3.30
2017-12-03T08:09:48.723Z,3.10
2017-12-03T08:12:16.991Z,2.80
2017-12-03T08:14:45.335Z,3.00
2017-12-03T08:17:13.599Z,2.70
2017-12-03T08:19:42.608Z,2.20
2017-12-03T08:22:10.873Z,2.20
2017-12-03T08:24:39.913Z,2.50
2017-12-03T08:27:08.200Z,2.50
2017-12-03T08:29:36.514Z,2.20
2017-12-03T08:32:05.778Z,2.10
2017-12-03T08:34:34.040Z,2.10
2017-12-03T08:37:02.342Z,2.30
2017-12-03T08:39:30.624Z,2.30
2017-12-03T08:41:58.901Z,2.40
2017-12-03T08:44:27.414Z,2.30
2017-12-03T08:46:55.744Z,2.40
2017-12-03T08:49:24.883Z,2.70
2017-12-03T08:51:53.208Z,2.70
2017-12-03T08:54:21.531Z,2.80
2017-12-03T08:56:50.179Z,2.50
2017-12-03T08:59:18.503Z,2.50
2017-12-03T09:01:47.138Z,2.40
2017-12-03T09:04:15.432Z,2.50
2017-12-03T09:06:43.912Z,2.90
2017-12-03T09:09:12.947Z,3.40
2017-12-03T09:11:41.270Z,3.40
2017-12-03T09:14:09.607Z,3.50
2017-12-03T09:16:37.909Z,3.80
2017-12-03T09:19:06.461Z,3.50
2017-12-03T09:21:35.585Z,2.80
2017-12-03T09:24:03.827Z,2.90
2017-12-03T09:26:32.065Z,3.50
2017-12-03T09:29:00.370Z,3.00
2017-12-03T09:31:28.696Z,2.80
2017-12-03T09:33:56.993Z,2.80
2017-12-03T09:36:25.423Z,2.90
2017-12-03T09:38:53.755Z,2.80
2017-12-03T09:41:22.056Z,3.30
2017-12-03T09:43:50.409Z,3.50
2017-12-03T09:46:18.657Z,3.40
2017-12-03T09:48:46.955Z,2.90
2017-12-03T09:51:15.279Z,2.70
2017-12-03T09:53:43.528Z,2.90
2017-12-03T09:56:12.614Z,3.10
2017-12-03T09:58:41.719Z,2.90
2017-12-03T10:01:10.014Z,2.90
2017-12-03T10:03:38.891Z,2.70
2017-12-03T10:06:09.053Z,2.80
2017-12-03T10:08:37.358Z,2.80
2017-12-03T10:11:05.614Z,2.70
2017-12-03T10:13:34.529Z,2.50
2017-12-03T10:16:03.560Z,2.70
2017-12-03T10:18:31.798Z,2.60
2017-12-03T10:21:01.520Z,2.30
2017-12-03T10:23:30.598Z,2.40
2017-12-03T10:25:58.839Z,2.40
2017-12-03T10:28:27.148Z,2.50
2017-12-03T10:30:55.427Z,2.80
2017-12-03T10:33:23.698Z,2.80
2017-12-03T10:35:51.986Z,2.70
2017-12-03T10:38:21.003Z,2.50
2017-12-03T10:40:49.270Z,2.50
2017-12-03T10:43:17.649Z,2.60
2017-12-03T10:45:46.673Z,2.60
2017-12-03T10:48:14.947Z,2.50
2017-12-03T10:50:43.262Z,2.60
2017-12-03T10:53:11.539Z,2.80
2017-12-03T10:55:39.796Z,2.90
2017-12-03T10:58:09.067Z,3.00
2017-12-03T11:00:37.882Z,3.00
2017-12-03T11:03:06.138Z,3.50
2017-12-03T11:05:34.531Z,3.80
2017-12-03T11:08:02.820Z,3.20
2017-12-03T11:10:31.090Z,2.80
2017-12-03T11:12:59.440Z,3.00
2017-12-03T11:15:27.754Z,2.90
2017-12-03T11:17:56.023Z,3.40
2017-12-03T11:20:24.440Z,3.80
2017-12-03T11:22:52.711Z,4.20
2017-12-03T11:25:21.731Z,4.60
2017-12-03T11:27:50.177Z,4.60
2017-12-03T11:30:19.206Z,4.20
2017-12-03T11:32:47.499Z,4.20
2017-12-03T11:35:16.654Z,4.50
2017-12-03T11:37:45.668Z,4.60
2017-12-03T11:40:13.974Z,4.60
2017-12-03T11:42:43.059Z,4.20
2017-12-03T11:45:11.416Z,4.20
2017-12-03T11:47:39.702Z,4.10
2017-12-03T11:50:08.788Z,4.60
2017-12-03T11:52:37.057Z,4.60
2017-12-03T11:55:05.389Z,4.90
2017-12-03T11:57:34.431Z,4.30
2017-12-03T12:00:02.744Z,4.20
2017-12-03T12:02:31.038Z,4.80
2017-12-03T12:04:59.313Z,4.50
2017-12-03T12:07:27.552Z,4.30
2017-12-03T12:09:57.917Z,4.90
2017-12-03T12:12:26.203Z,5.00
2017-12-03T12:14:54.509Z,4.50
2017-12-03T12:17:22.942Z,4.90
2017-12-03T12:19:51.189Z,5.20
2017-12-03T12:22:19.440Z,5.20
2017-12-03T12:24:47.766Z,4.60
2017-12-03T12:27:16.014Z,4.60
2017-12-03T12:29:44.270Z,4.50
2017-12-03T12:32:12.768Z,4.40
2017-12-03T12:34:41.051Z,4.30
2017-12-03T12:37:09.299Z,4.40
2017-12-03T12:39:37.584Z,4.50
2017-12-03T12:42:05.873Z,4.60
2017-12-03T12:44:34.154Z,4.10
2017-12-03T12:47:02.446Z,4.30
2017-12-03T12:49:30.729Z,4.20
2017-12-03T12:51:59.062Z,4.20
2017-12-03T12:54:27.433Z,4.70
2017-12-03T12:56:55.700Z,4.50
2017-12-03T12:59:24.730Z,4.50
2017-12-03T13:01:53.072Z,4.40
2017-12-03T13:04:22.123Z,4.30
2017-12-03T13:06:50.374Z,4.30
2017-12-03T13:09:18.786Z,4.40
2017-12-03T13:11:47.039Z,4.70
2017-12-03T13:14:15.288Z,4.60
2017-12-03T13:16:43.831Z,4.80
2017-12-03T13:19:12.867Z,4.30
2017-12-03T13:21:41.094Z,4.30
2017-12-03T13:24:09.627Z,4.50
2017-12-03T13:26:38.093Z,4.40
2017-12-03T13:29:07.494Z,4.60
2017-12-03T13:31:35.926Z,4.90
2017-12-03T13:34:04.172Z,4.70
2017-12-03T13:36:32.446Z,4.40
2017-12-03T13:39:00.735Z,4.10
2017-12-03T13:41:28.978Z,4.10
2017-12-03T13:43:57.228Z,4.10
2017-12-03T13:46:25.547Z,4.00
2017-12-03T13:48:53.777Z,3.80
2017-12-03T13:51:23.191Z,4.20
2017-12-03T13:53:52.263Z,4.20
2017-12-03T13:56:20.519Z,4.20
2017-12-03T13:58:48.765Z,4.40
2017-12-03T14:01:17.149Z,4.80
2017-12-03T14:03:45.438Z,4.80
2017-12-03T14:06:13.744Z,4.60
2017-12-03T14:08:42.072Z,4.90
2017-12-03T14:11:10.905Z,4.70
2017-12-03T14:13:39.163Z,5.00
2017-12-03T14:16:07.847Z,5.20
2017-12-03T14:18:36.167Z,5.20
2017-12-03T14:21:05.193Z,5.10
2017-12-03T14:23:34.298Z,4.80
2017-12-03T14:26:02.568Z,4.70
2017-12-03T14:28:30.811Z,4.90
2017-12-03T14:30:59.889Z,5.40
2017-12-03T14:33:28.168Z,5.40
2017-12-03T14:35:57.185Z,5.10
2017-12-03T14:38:25.478Z,5.10
2017-12-03T14:40:53.728Z,5.40
2017-12-03T14:43:22.742Z,5.70
2017-12-03T14:45:51.026Z,5.60
2017-12-03T14:48:19.323Z,5.50
2017-12-03T14:50:47.627Z,5.60
2017-12-03T14:53:15.960Z,5.70
2017-12-03T14:55:44.228Z,5.40
2017-12-03T14:58:12.477Z,5.50
2017-12-03T15:00:41.671Z,5.80
2017-12-03T15:03:10.712Z,5.80
2017-12-03T15:05:38.967Z,5.80
2017-12-03T15:08:07.317Z,5.80
2017-12-03T15:10:36.339Z,5.80
2017-12-03T15:13:04.597Z,5.80
2017-12-03T15:15:32.907Z,5.80
2017-12-03T15:18:01.224Z,5.80
2017-12-03T15:20:30.323Z,5.60
2017-12-03T15:22:58.685Z,5.60
2017-12-03T15:25:27.110Z,5.60
2017-12-03T15:27:56.303Z,5.60
2017-12-03T15:30:24.618Z,5.40
2017-12-03T15:32:52.880Z,5.30
2017-12-03T15:35:21.316Z,5.50
2017-12-03T15:37:50.436Z,5.80
2017-12-03T15:40:18.718Z,5.80
2017-12-03T15:42:47.007Z,5.80
2017-12-03T15:45:15.314Z,5.80
2017-12-03T15:47:43.603Z,5.70
2017-12-03T15:50:11.916Z,5.80
2017-12-03T15:52:40.247Z,5.70
2017-12-03T15:55:08.535Z,5.50
2017-12-03T15:57:37.541Z,5.60
2017-12-03T16:00:06.682Z,5.40
2017-12-03T16:02:34.962Z,5.30
2017-12-03T16:05:03.213Z,5.50
2017-12-03T16:07:31.548Z,5.60
2017-12-03T16:09:59.824Z,5.50
2017-12-03T16:12:28.115Z,5.40
2017-12-03T16:14:56.454Z,5.30
2017-12-03T16:17:24.697Z,5.30
2017-12-03T16:19:52.977Z,4.50
2017-12-03T16:22:21.352Z,4.20
2017-12-03T16:24:49.646Z,4.10
2017-12-03T16:27:17.947Z,5.00
2017-12-03T16:29:46.359Z,5.30
2017-12-03T16:32:14.604Z,5.40
2017-12-03T16:34:42.853Z,5.00
2017-12-03T16:37:11.147Z,4.90
2017-12-03T16:39:39.419Z,5.10
2017-12-03T16:42:07.703Z,5.00
2017-12-03T16:44:36.046Z,4.90
2017-12-03T16:47:04.344Z,4.80
2017-12-03T16:49:32.619Z,5.00
2017-12-03T16:52:00.915Z,5.30
2017-12-03T16:54:29.157Z,5.20
2017-12-03T16:56:57.428Z,5.20
2017-12-03T16:59:25.722Z,5.40
2017-12-03T17:01:53.959Z,5.30
2017-12-03T17:04:22.297Z,5.20
2017-12-03T17:06:50.632Z,5.30
2017-12-03T17:09:18.885Z,4.70
2017-12-03T17:11:47.204Z,4.40
2017-12-03T17:14:15.523Z,4.00
2017-12-03T17:16:44.550Z,3.80
2017-12-03T17:19:12.807Z,3.80
2017-12-03T17:21:41.878Z,3.80
2017-12-03T17:24:10.200Z,4.20
2017-12-03T17:26:38.465Z,4.40
2017-12-03T17:29:06.740Z,4.70
2017-12-03T17:31:35.011Z,4.50
2017-12-03T17:34:03.294Z,4.60
2017-12-03T17:36:31.590Z,4.60
2017-12-03T17:38:59.831Z,4.10
2017-12-03T17:41:28.131Z,4.10
2017-12-03T17:43:56.435Z,4.70
2017-12-03T17:46:24.671Z,4.80
2017-12-03T17:48:52.910Z,4.60
2017-12-03T17:51:21.949Z,4.10
2017-12-03T17:53:50.193Z,4.10
2017-12-03T17:56:19.203Z,4.50
2017-12-03T17:58:47.496Z,4.40
2017-12-03T18:01:15.726Z,3.60
2017-12-03T18:03:43.990Z,3.10
2017-12-03T18:06:12.263Z,3.60
2017-12-03T18:08:40.515Z,4.10
2017-12-03T18:11:08.739Z,4.40
2017-12-03T18:13:37.028Z,4.50
2017-12-03T18:16:05.292Z,4.60
2017-12-03T18:18:34.316Z,3.90
2017-12-03T18:34:11.069Z,4.10
2017-12-03T18:36:39.303Z,3.30
2017-12-03T18:39:07.536Z,3.20
2017-12-03T18:41:35.793Z,3.60
2017-12-03T18:44:04.027Z,4.00
2017-12-03T18:46:33.197Z,3.80
2017-12-03T18:49:01.528Z,3.30
2017-12-03T18:51:29.761Z,3.20
2017-12-03T18:53:58.005Z,3.10
2017-12-03T18:56:26.411Z,3.70
2017-12-03T18:58:54.646Z,3.50
2017-12-03T19:01:22.875Z,3.30
2017-12-03T19:03:51.199Z,2.90
2017-12-03T19:06:19.448Z,2.80
2017-12-03T19:08:48.452Z,2.10
2017-12-03T19:11:16.768Z,2.10
2017-12-03T19:13:44.997Z,2.00
2017-12-03T19:16:13.994Z,2.10
2017-12-03T19:18:42.299Z,2.00
2017-12-03T19:21:10.555Z,2.00
2017-12-03T19:23:38.783Z,1.80
2017-12-03T19:26:07.071Z,1.60
2017-12-03T19:28:35.294Z,2.00
2017-12-03T19:31:03.514Z,1.60
2017-12-03T19:33:31.816Z,1.70
2017-12-03T19:36:00.807Z,1.80
2017-12-03T19:38:29.802Z,1.80
2017-12-03T19:40:59.006Z,1.90
2017-12-03T19:43:27.263Z,1.80
2017-12-03T19:45:56.289Z,2.10
2017-12-03T19:48:24.669Z,2.10
2017-12-03T19:50:52.895Z,1.70
2017-12-03T19:53:21.130Z,2.70
2017-12-03T19:55:49.423Z,3.10
2017-12-03T19:58:17.703Z,2.70
2017-12-03T20:00:45.942Z,1.90
2017-12-03T20:03:14.227Z,1.50
2017-12-03T20:05:42.472Z,1.80
2017-12-03T20:08:11.502Z,2.40
2017-12-03T20:10:39.780Z,2.40
2017-12-03T20:13:08.791Z,3.00
2017-12-03T20:15:37.345Z,3.00
2017-12-03T20:18:05.603Z,2.80
2017-12-03T20:20:33.837Z,2.60
2017-12-03T20:23:02.076Z,3.00
2017-12-03T20:25:30.351Z,3.00
2017-12-03T20:27:58.647Z,3.00
2017-12-03T20:30:27.672Z,3.30
2017-12-03T20:32:57.094Z,3.00
2017-12-03T20:35:25.330Z,3.10
2017-12-03T20:37:53.563Z,3.20
2017-12-03T20:40:21.830Z,3.40
2017-12-03T20:42:50.068Z,3.60
2017-12-03T20:45:19.090Z,3.60
2017-12-03T20:47:47.353Z,3.60
2017-12-03T20:50:16.342Z,3.40
2017-12-03T20:52:45.332Z,3.20
2017-12-03T20:55:14.397Z,3.50
2017-12-03T20:57:42.958Z,3.50
2017-12-03T21:00:11.211Z,3.60
2017-12-03T21:02:39.533Z,3.60
2017-12-03T21:05:07.775Z,3.60
2017-12-03T21:07:36.026Z,3.80
2017-12-03T21:10:05.125Z,3.90
2017-12-03T21:12:33.352Z,3.90
2017-12-03T21:15:01.575Z,3.50
2017-12-03T21:17:29.852Z,3.60
2017-12-03T21:19:58.075Z,3.70
2017-12-03T21:22:26.302Z,3.90
2017-12-03T21:24:54.563Z,3.80
2017-12-03T21:27:23.550Z,4.00
2017-12-03T21:29:52.554Z,4.00
2017-12-03T21:32:21.591Z,3.80
2017-12-03T21:34:49.839Z,3.80
2017-12-03T21:37:18.095Z,3.60
2017-12-03T21:39:47.128Z,3.90
2017-12-03T21:42:15.357Z,3.90
2017-12-03T21:44:44.355Z,3.50
2017-12-03T21:47:13.637Z,3.70
2017-12-03T21:49:42.639Z,3.60
2017-12-03T21:52:11.626Z,3.80
2017-12-03T21:54:40.959Z,3.80
2017-12-03T21:57:09.203Z,3.80
2017-12-03T21:59:38.198Z,3.40
2017-12-03T22:02:07.265Z,3.50
2017-12-03T22:04:35.492Z,3.50
2017-12-03T22:07:03.768Z,3.50
2017-12-03T22:09:32.012Z,3.10
2017-12-03T22:12:00.312Z,3.40
2017-12-03T22:14:28.538Z,2.80
2017-12-03T22:16:56.780Z,3.00
2017-12-03T22:19:25.174Z,3.50
2017-12-03T22:21:53.414Z,3.60
2017-12-03T22:24:22.406Z,3.70
2017-12-03T22:26:51.551Z,3.90
2017-12-03T22:29:19.782Z,3.80
2017-12-03T22:31:47.996Z,3.60
2017-12-03T22:34:16.295Z,2.90
2017-12-03T22:36:44.530Z,3.40
2017-12-03T22:39:12.746Z,2.80
2017-12-03T22:41:41.853Z,2.90
2017-12-03T22:44:10.841Z,3.00
2017-12-03T22:46:39.076Z,3.00
2017-12-03T22:49:07.354Z,3.20
2017-12-03T22:51:35.658Z,3.30
2017-12-03T22:54:03.873Z,3.20
2017-12-03T22:56:32.876Z,3.10
2017-12-03T22:59:01.163Z,3.10
2017-12-03T23:01:29.388Z,2.50
2017-12-03T23:03:57.630Z,2.60
2017-12-03T23:06:26.078Z,3.00
2017-12-03T23:08:54.307Z,3.10
2017-12-03T23:11:22.551Z,3.40
2017-12-03T23:13:50.856Z,3.30
2017-12-03T23:16:19.083Z,3.10
2017-12-03T23:18:47.305Z,3.20
2017-12-03T23:21:15.589Z,3.00
2017-12-03T23:23:43.819Z,3.50
2017-12-03T23:26:12.043Z,3.10
2017-12-03T23:28:41.093Z,3.30
2017-12-03T23:31:09.319Z,3.30
2017-12-03T23:33:38.331Z,3.50
2017-12-03T23:36:07.393Z,3.30
2017-12-03T23:38:35.624Z,3.30
2017-12-03T23:41:04.620Z,3.20
2017-12-03T23:43:32.868Z,3.30
2017-12-03T23:46:01.080Z,3.50
2017-12-03T23:48:29.380Z,3.20
2017-12-03T23:50:57.599Z,3.60
2017-12-03T23:53:25.834Z,2.60
2017-12-03T23:55:54.111Z,2.80
2017-12-03T23:58:22.341Z,2.70
